Terminal Aerodrome Forecast
Issued by NWS

Home | Current Version | Previous Version | Graphics & Text | Print | Product List | Glossary On
Versions: 1 2 3 4 5 6 7 8 9 10 11 12 13 14 15
597
FTUS43 KTOP 202325
TAFMHK
TAF
KMHK 202325Z 2100/2124 06006KT P6SM FEW250
     FM211400 19012KT P6SM SCT130
     FM211900 18016G24KT P6SM FEW250=

USA.gov is the U.S. government's official web portal to all federal, state and local government web resources and services.